sensor_id;sensor_type;location;lat;lon;timestamp;P1;durP1;ratioP1;P2;durP2;ratioP2
26690;SDS011;14307;51.718;8.938;2022-10-31T00:01:09;25.00;;;19.85;;
26690;SDS011;14307;51.718;8.938;2022-10-31T00:03:38;26.42;;;19.60;;
26690;SDS011;14307;51.718;8.938;2022-10-31T00:06:05;23.75;;;18.92;;
26690;SDS011;14307;51.718;8.938;2022-10-31T00:08:32;26.08;;;18.92;;
26690;SDS011;14307;51.718;8.938;2022-10-31T00:10:59;24.02;;;19.15;;
26690;SDS011;14307;51.718;8.938;2022-10-31T00:13:26;27.20;;;19.63;;
26690;SDS011;14307;51.718;8.938;2022-10-31T00:15:53;24.77;;;19.98;;
26690;SDS011;14307;51.718;8.938;2022-10-31T00:18:19;21.98;;;19.63;;
26690;SDS011;14307;51.718;8.938;2022-10-31T00:20:46;23.38;;;20.35;;
26690;SDS011;14307;51.718;8.938;2022-10-31T00:23:13;24.65;;;20.08;;
26690;SDS011;14307;51.718;8.938;2022-10-31T00:25:39;25.13;;;20.63;;
26690;SDS011;14307;51.718;8.938;2022-10-31T00:28:07;27.02;;;20.63;;
26690;SDS011;14307;51.718;8.938;2022-10-31T00:30:37;30.17;;;21.23;;
26690;SDS011;14307;51.718;8.938;2022-10-31T00:33:04;26.80;;;20.40;;
26690;SDS011;14307;51.718;8.938;2022-10-31T00:35:31;29.52;;;20.35;;
26690;SDS011;14307;51.718;8.938;2022-10-31T00:37:58;30.17;;;21.10;;
26690;SDS011;14307;51.718;8.938;2022-10-31T00:40:25;27.20;;;20.73;;
26690;SDS011;14307;51.718;8.938;2022-10-31T00:42:52;23.98;;;20.70;;
26690;SDS011;14307;51.718;8.938;2022-10-31T00:45:19;27.80;;;21.17;;
26690;SDS011;14307;51.718;8.938;2022-10-31T00:47:46;25.98;;;19.80;;
26690;SDS011;14307;51.718;8.938;2022-10-31T00:50:13;28.85;;;21.23;;
26690;SDS011;14307;51.718;8.938;2022-10-31T00:52:40;32.65;;;22.33;;
26690;SDS011;14307;51.718;8.938;2022-10-31T00:55:07;29.30;;;22.73;;
26690;SDS011;14307;51.718;8.938;2022-10-31T00:57:33;28.10;;;23.30;;
26690;SDS011;14307;51.718;8.938;2022-10-31T01:00:01;28.60;;;25.25;;
26690;SDS011;14307;51.718;8.938;2022-10-31T01:02:29;26.88;;;24.23;;
26690;SDS011;14307;51.718;8.938;2022-10-31T01:04:55;29.48;;;24.20;;
26690;SDS011;14307;51.718;8.938;2022-10-31T01:07:22;30.90;;;24.40;;
26690;SDS011;14307;51.718;8.938;2022-10-31T01:09:49;29.95;;;23.58;;
26690;SDS011;14307;51.718;8.938;2022-10-31T01:12:16;26.83;;;24.00;;
26690;SDS011;14307;51.718;8.938;2022-10-31T01:14:43;28.52;;;23.80;;
26690;SDS011;14307;51.718;8.938;2022-10-31T01:17:11;28.92;;;24.25;;
26690;SDS011;14307;51.718;8.938;2022-10-31T01:19:38;28.00;;;23.63;;
26690;SDS011;14307;51.718;8.938;2022-10-31T01:22:05;28.58;;;24.20;;
26690;SDS011;14307;51.718;8.938;2022-10-31T01:24:32;28.00;;;24.85;;
26690;SDS011;14307;51.718;8.938;2022-10-31T01:27:00;27.77;;;24.25;;
26690;SDS011;14307;51.718;8.938;2022-10-31T01:29:30;30.00;;;23.35;;
26690;SDS011;14307;51.718;8.938;2022-10-31T01:31:57;33.25;;;24.65;;
26690;SDS011;14307;51.718;8.938;2022-10-31T01:34:24;29.45;;;24.83;;
26690;SDS011;14307;51.718;8.938;2022-10-31T01:36:51;37.95;;;26.00;;
26690;SDS011;14307;51.718;8.938;2022-10-31T01:39:18;30.45;;;24.65;;
26690;SDS011;14307;51.718;8.938;2022-10-31T01:41:46;28.08;;;25.05;;
26690;SDS011;14307;51.718;8.938;2022-10-31T01:49:11;32.45;;;27.33;;
26690;SDS011;14307;51.718;8.938;2022-10-31T01:51:48;29.77;;;26.10;;
26690;SDS011;14307;51.718;8.938;2022-10-31T01:54:20;37.88;;;27.17;;
26690;SDS011;14307;51.718;8.938;2022-10-31T01:56:50;32.45;;;28.05;;
26690;SDS011;14307;51.718;8.938;2022-10-31T01:59:21;40.58;;;29.10;;
26690;SDS011;14307;51.718;8.938;2022-10-31T02:01:51;40.85;;;28.25;;
26690;SDS011;14307;51.718;8.938;2022-10-31T02:04:20;40.47;;;30.25;;
26690;SDS011;14307;51.718;8.938;2022-10-31T02:06:53;39.25;;;30.02;;
26690;SDS011;14307;51.718;8.938;2022-10-31T02:09:29;43.45;;;29.77;;
26690;SDS011;14307;51.718;8.938;2022-10-31T02:12:00;44.72;;;31.98;;
26690;SDS011;14307;51.718;8.938;2022-10-31T02:14:29;40.15;;;28.95;;
26690;SDS011;14307;51.718;8.938;2022-10-31T02:16:57;43.72;;;32.35;;
26690;SDS011;14307;51.718;8.938;2022-10-31T02:19:27;49.90;;;33.97;;
26690;SDS011;14307;51.718;8.938;2022-10-31T02:22:11;56.40;;;36.53;;
26690;SDS011;14307;51.718;8.938;2022-10-31T02:28:25;50.17;;;32.78;;
26690;SDS011;14307;51.718;8.938;2022-10-31T02:31:07;45.97;;;33.38;;
26690;SDS011;14307;51.718;8.938;2022-10-31T02:33:53;52.42;;;35.30;;
26690;SDS011;14307;51.718;8.938;2022-10-31T02:39:25;65.03;;;36.40;;
26690;SDS011;14307;51.718;8.938;2022-10-31T02:44:38;56.40;;;33.33;;
26690;SDS011;14307;51.718;8.938;2022-10-31T02:47:13;57.65;;;34.53;;
26690;SDS011;14307;51.718;8.938;2022-10-31T02:49:57;58.35;;;35.45;;
26690;SDS011;14307;51.718;8.938;2022-10-31T02:52:32;56.60;;;37.08;;
26690;SDS011;14307;51.718;8.938;2022-10-31T02:58:02;60.95;;;35.60;;
26690;SDS011;14307;51.718;8.938;2022-10-31T03:00:41;62.58;;;38.03;;
26690;SDS011;14307;51.718;8.938;2022-10-31T03:03:25;73.32;;;42.28;;
26690;SDS011;14307;51.718;8.938;2022-10-31T03:06:08;79.13;;;41.05;;
26690;SDS011;14307;51.718;8.938;2022-10-31T03:11:15;63.05;;;36.95;;
26690;SDS011;14307;51.718;8.938;2022-10-31T03:16:19;57.00;;;32.95;;
26690;SDS011;14307;51.718;8.938;2022-10-31T03:18:56;45.75;;;33.58;;
26690;SDS011;14307;51.718;8.938;2022-10-31T03:21:33;63.58;;;35.38;;
26690;SDS011;14307;51.718;8.938;2022-10-31T03:24:06;65.45;;;35.78;;
26690;SDS011;14307;51.718;8.938;2022-10-31T03:26:35;70.30;;;37.03;;
26690;SDS011;14307;51.718;8.938;2022-10-31T03:29:07;63.90;;;35.10;;
26690;SDS011;14307;51.718;8.938;2022-10-31T03:32:02;66.80;;;37.45;;
26690;SDS011;14307;51.718;8.938;2022-10-31T03:34:33;67.47;;;37.25;;
26690;SDS011;14307;51.718;8.938;2022-10-31T03:37:03;70.57;;;37.38;;
26690;SDS011;14307;51.718;8.938;2022-10-31T03:39:32;75.55;;;39.45;;
26690;SDS011;14307;51.718;8.938;2022-10-31T03:42:06;68.90;;;38.25;;
26690;SDS011;14307;51.718;8.938;2022-10-31T03:44:36;70.03;;;35.85;;
26690;SDS011;14307;51.718;8.938;2022-10-31T03:47:07;87.75;;;38.10;;
26690;SDS011;14307;51.718;8.938;2022-10-31T03:49:34;76.55;;;36.90;;
26690;SDS011;14307;51.718;8.938;2022-10-31T03:55:01;65.88;;;34.13;;
26690;SDS011;14307;51.718;8.938;2022-10-31T03:57:39;63.55;;;34.40;;
26690;SDS011;14307;51.718;8.938;2022-10-31T04:00:08;69.68;;;36.63;;
26690;SDS011;14307;51.718;8.938;2022-10-31T04:02:45;76.53;;;36.50;;
26690;SDS011;14307;51.718;8.938;2022-10-31T04:05:24;78.45;;;37.97;;
26690;SDS011;14307;51.718;8.938;2022-10-31T04:07:54;94.40;;;41.90;;
26690;SDS011;14307;51.718;8.938;2022-10-31T04:10:23;87.80;;;40.35;;
26690;SDS011;14307;51.718;8.938;2022-10-31T04:13:03;78.93;;;37.85;;
26690;SDS011;14307;51.718;8.938;2022-10-31T04:15:43;79.27;;;37.20;;
26690;SDS011;14307;51.718;8.938;2022-10-31T04:18:11;87.38;;;39.22;;
26690;SDS011;14307;51.718;8.938;2022-10-31T04:20:39;86.00;;;38.08;;
26690;SDS011;14307;51.718;8.938;2022-10-31T04:23:14;83.55;;;38.28;;
26690;SDS011;14307;51.718;8.938;2022-10-31T04:25:49;88.93;;;40.97;;
26690;SDS011;14307;51.718;8.938;2022-10-31T04:28:17;88.53;;;39.08;;
26690;SDS011;14307;51.718;8.938;2022-10-31T04:30:50;80.50;;;36.35;;
26690;SDS011;14307;51.718;8.938;2022-10-31T04:33:16;72.93;;;37.83;;
26690;SDS011;14307;51.718;8.938;2022-10-31T04:35:45;81.40;;;39.47;;
26690;SDS011;14307;51.718;8.938;2022-10-31T04:38:12;82.15;;;38.60;;
26690;SDS011;14307;51.718;8.938;2022-10-31T04:40:39;81.80;;;38.22;;
26690;SDS011;14307;51.718;8.938;2022-10-31T04:45:52;79.35;;;39.50;;
26690;SDS011;14307;51.718;8.938;2022-10-31T04:48:18;87.45;;;42.58;;
26690;SDS011;14307;51.718;8.938;2022-10-31T04:50:45;94.38;;;43.50;;
26690;SDS011;14307;51.718;8.938;2022-10-31T04:53:13;90.45;;;40.25;;
26690;SDS011;14307;51.718;8.938;2022-10-31T04:56:06;91.55;;;42.78;;
26690;SDS011;14307;51.718;8.938;2022-10-31T04:58:40;100.25;;;43.35;;
26690;SDS011;14307;51.718;8.938;2022-10-31T05:01:08;101.10;;;43.45;;
26690;SDS011;14307;51.718;8.938;2022-10-31T05:03:35;90.30;;;43.13;;
26690;SDS011;14307;51.718;8.938;2022-10-31T05:06:02;104.70;;;46.38;;
26690;SDS011;14307;51.718;8.938;2022-10-31T05:08:29;100.45;;;43.67;;
26690;SDS011;14307;51.718;8.938;2022-10-31T05:10:59;113.88;;;47.20;;
26690;SDS011;14307;51.718;8.938;2022-10-31T05:13:30;135.40;;;49.95;;
26690;SDS011;14307;51.718;8.938;2022-10-31T05:16:12;126.53;;;48.83;;
26690;SDS011;14307;51.718;8.938;2022-10-31T05:18:54;109.13;;;45.60;;
26690;SDS011;14307;51.718;8.938;2022-10-31T05:21:46;131.00;;;47.80;;
26690;SDS011;14307;51.718;8.938;2022-10-31T05:24:13;124.00;;;48.88;;
26690;SDS011;14307;51.718;8.938;2022-10-31T05:26:45;87.95;;;41.05;;
26690;SDS011;14307;51.718;8.938;2022-10-31T05:29:12;98.53;;;41.75;;
26690;SDS011;14307;51.718;8.938;2022-10-31T05:31:39;74.22;;;37.85;;
26690;SDS011;14307;51.718;8.938;2022-10-31T05:34:11;81.60;;;38.67;;
26690;SDS011;14307;51.718;8.938;2022-10-31T05:37:05;76.60;;;39.30;;
26690;SDS011;14307;51.718;8.938;2022-10-31T05:39:31;110.55;;;46.10;;
26690;SDS011;14307;51.718;8.938;2022-10-31T05:42:03;108.38;;;42.83;;
26690;SDS011;14307;51.718;8.938;2022-10-31T05:44:30;84.10;;;40.33;;
26690;SDS011;14307;51.718;8.938;2022-10-31T05:47:07;85.50;;;40.25;;
26690;SDS011;14307;51.718;8.938;2022-10-31T05:49:53;90.78;;;42.50;;
26690;SDS011;14307;51.718;8.938;2022-10-31T05:53:03;89.30;;;44.05;;
26690;SDS011;14307;51.718;8.938;2022-10-31T05:55:36;93.15;;;45.22;;
26690;SDS011;14307;51.718;8.938;2022-10-31T05:58:12;101.57;;;45.53;;
26690;SDS011;14307;51.718;8.938;2022-10-31T06:00:45;103.20;;;45.85;;
26690;SDS011;14307;51.718;8.938;2022-10-31T06:03:11;105.47;;;45.97;;
26690;SDS011;14307;51.718;8.938;2022-10-31T06:05:54;94.60;;;42.50;;
26690;SDS011;14307;51.718;8.938;2022-10-31T06:08:24;99.93;;;46.05;;
26690;SDS011;14307;51.718;8.938;2022-10-31T06:10:52;117.72;;;49.05;;
26690;SDS011;14307;51.718;8.938;2022-10-31T06:13:29;120.78;;;50.00;;
26690;SDS011;14307;51.718;8.938;2022-10-31T06:16:07;105.28;;;46.58;;
26690;SDS011;14307;51.718;8.938;2022-10-31T06:18:36;103.70;;;47.55;;
26690;SDS011;14307;51.718;8.938;2022-10-31T06:21:03;109.22;;;48.17;;
26690;SDS011;14307;51.718;8.938;2022-10-31T06:23:30;136.60;;;53.78;;
26690;SDS011;14307;51.718;8.938;2022-10-31T06:26:16;147.02;;;51.65;;
26690;SDS011;14307;51.718;8.938;2022-10-31T06:28:43;151.35;;;56.28;;
26690;SDS011;14307;51.718;8.938;2022-10-31T06:31:24;124.55;;;48.42;;
26690;SDS011;14307;51.718;8.938;2022-10-31T06:33:51;154.55;;;55.10;;
26690;SDS011;14307;51.718;8.938;2022-10-31T06:36:18;213.60;;;61.30;;
26690;SDS011;14307;51.718;8.938;2022-10-31T06:38:45;190.93;;;61.30;;
26690;SDS011;14307;51.718;8.938;2022-10-31T06:41:14;187.20;;;62.75;;
26690;SDS011;14307;51.718;8.938;2022-10-31T06:43:45;179.65;;;70.03;;
26690;SDS011;14307;51.718;8.938;2022-10-31T06:46:29;193.05;;;71.50;;
26690;SDS011;14307;51.718;8.938;2022-10-31T06:49:12;171.80;;;65.53;;
26690;SDS011;14307;51.718;8.938;2022-10-31T06:51:52;137.85;;;53.10;;
26690;SDS011;14307;51.718;8.938;2022-10-31T06:54:19;120.38;;;47.88;;
26690;SDS011;14307;51.718;8.938;2022-10-31T06:56:45;119.38;;;48.78;;
26690;SDS011;14307;51.718;8.938;2022-10-31T06:59:15;121.85;;;47.63;;
26690;SDS011;14307;51.718;8.938;2022-10-31T07:02:01;115.00;;;48.83;;
26690;SDS011;14307;51.718;8.938;2022-10-31T07:04:28;131.65;;;52.58;;
26690;SDS011;14307;51.718;8.938;2022-10-31T07:06:55;129.77;;;52.17;;
26690;SDS011;14307;51.718;8.938;2022-10-31T07:09:22;148.52;;;59.63;;
26690;SDS011;14307;51.718;8.938;2022-10-31T07:11:51;147.90;;;59.15;;
26690;SDS011;14307;51.718;8.938;2022-10-31T07:14:19;157.27;;;61.30;;
26690;SDS011;14307;51.718;8.938;2022-10-31T07:16:49;154.43;;;62.00;;
26690;SDS011;14307;51.718;8.938;2022-10-31T07:19:22;148.68;;;59.70;;
26690;SDS011;14307;51.718;8.938;2022-10-31T07:21:49;161.18;;;62.60;;
26690;SDS011;14307;51.718;8.938;2022-10-31T07:24:15;157.30;;;63.83;;
26690;SDS011;14307;51.718;8.938;2022-10-31T07:26:42;163.35;;;64.60;;
26690;SDS011;14307;51.718;8.938;2022-10-31T07:29:09;165.80;;;64.90;;
26690;SDS011;14307;51.718;8.938;2022-10-31T07:31:36;182.13;;;66.28;;
26690;SDS011;14307;51.718;8.938;2022-10-31T07:34:11;169.23;;;63.47;;
26690;SDS011;14307;51.718;8.938;2022-10-31T07:37:10;154.15;;;57.90;;
26690;SDS011;14307;51.718;8.938;2022-10-31T07:39:36;156.20;;;63.95;;
26690;SDS011;14307;51.718;8.938;2022-10-31T07:42:05;158.55;;;63.60;;
26690;SDS011;14307;51.718;8.938;2022-10-31T07:44:33;169.75;;;65.53;;
26690;SDS011;14307;51.718;8.938;2022-10-31T07:47:28;171.57;;;68.05;;
26690;SDS011;14307;51.718;8.938;2022-10-31T07:50:01;147.93;;;60.33;;
26690;SDS011;14307;51.718;8.938;2022-10-31T07:52:46;156.98;;;64.15;;
26690;SDS011;14307;51.718;8.938;2022-10-31T07:55:32;162.07;;;65.63;;
26690;SDS011;14307;51.718;8.938;2022-10-31T07:58:00;162.02;;;68.07;;
26690;SDS011;14307;51.718;8.938;2022-10-31T08:00:29;136.00;;;58.40;;
26690;SDS011;14307;51.718;8.938;2022-10-31T08:03:00;102.93;;;47.65;;
26690;SDS011;14307;51.718;8.938;2022-10-31T08:05:48;99.45;;;48.90;;
26690;SDS011;14307;51.718;8.938;2022-10-31T08:08:44;99.35;;;50.90;;
26690;SDS011;14307;51.718;8.938;2022-10-31T08:11:11;83.63;;;46.15;;
26690;SDS011;14307;51.718;8.938;2022-10-31T08:13:38;64.95;;;42.08;;
26690;SDS011;14307;51.718;8.938;2022-10-31T08:16:04;76.25;;;44.00;;
26690;SDS011;14307;51.718;8.938;2022-10-31T08:18:36;79.88;;;47.20;;
26690;SDS011;14307;51.718;8.938;2022-10-31T08:21:10;83.75;;;48.95;;
26690;SDS011;14307;51.718;8.938;2022-10-31T08:23:38;75.07;;;45.35;;
26690;SDS011;14307;51.718;8.938;2022-10-31T08:26:06;62.70;;;40.67;;
26690;SDS011;14307;51.718;8.938;2022-10-31T08:28:33;67.65;;;43.05;;
26690;SDS011;14307;51.718;8.938;2022-10-31T08:30:59;60.58;;;41.35;;
26690;SDS011;14307;51.718;8.938;2022-10-31T08:33:46;72.15;;;46.00;;
26690;SDS011;14307;51.718;8.938;2022-10-31T08:36:51;66.85;;;43.45;;
26690;SDS011;14307;51.718;8.938;2022-10-31T08:39:27;64.28;;;43.40;;
26690;SDS011;14307;51.718;8.938;2022-10-31T08:41:54;76.07;;;47.72;;
26690;SDS011;14307;51.718;8.938;2022-10-31T08:44:21;71.43;;;46.65;;
26690;SDS011;14307;51.718;8.938;2022-10-31T08:46:48;67.88;;;45.60;;
26690;SDS011;14307;51.718;8.938;2022-10-31T08:49:14;76.10;;;46.67;;
26690;SDS011;14307;51.718;8.938;2022-10-31T08:51:42;69.07;;;45.20;;
26690;SDS011;14307;51.718;8.938;2022-10-31T08:54:09;61.80;;;41.58;;
26690;SDS011;14307;51.718;8.938;2022-10-31T08:56:55;61.35;;;43.75;;
26690;SDS011;14307;51.718;8.938;2022-10-31T08:59:39;60.45;;;43.88;;
26690;SDS011;14307;51.718;8.938;2022-10-31T09:02:19;66.03;;;43.58;;
26690;SDS011;14307;51.718;8.938;2022-10-31T09:04:49;60.00;;;42.97;;
26690;SDS011;14307;51.718;8.938;2022-10-31T09:07:16;56.95;;;42.70;;
26690;SDS011;14307;51.718;8.938;2022-10-31T09:09:47;61.80;;;44.67;;
26690;SDS011;14307;51.718;8.938;2022-10-31T09:12:13;58.92;;;44.70;;
26690;SDS011;14307;51.718;8.938;2022-10-31T09:14:57;58.78;;;43.03;;
26690;SDS011;14307;51.718;8.938;2022-10-31T09:17:32;56.95;;;42.70;;
26690;SDS011;14307;51.718;8.938;2022-10-31T09:20:18;61.08;;;46.15;;
26690;SDS011;14307;51.718;8.938;2022-10-31T09:22:45;53.72;;;45.00;;
26690;SDS011;14307;51.718;8.938;2022-10-31T09:25:12;60.80;;;45.38;;
26690;SDS011;14307;51.718;8.938;2022-10-31T09:27:43;57.65;;;44.25;;
26690;SDS011;14307;51.718;8.938;2022-10-31T09:30:10;60.05;;;45.88;;
26690;SDS011;14307;51.718;8.938;2022-10-31T09:32:38;56.72;;;42.65;;
26690;SDS011;14307;51.718;8.938;2022-10-31T09:35:05;47.05;;;41.45;;
26690;SDS011;14307;51.718;8.938;2022-10-31T09:37:32;48.25;;;41.53;;
26690;SDS011;14307;51.718;8.938;2022-10-31T09:39:59;50.25;;;41.33;;
26690;SDS011;14307;51.718;8.938;2022-10-31T09:45:47;45.75;;;39.70;;
26690;SDS011;14307;51.718;8.938;2022-10-31T09:51:23;44.97;;;39.45;;
26690;SDS011;14307;51.718;8.938;2022-10-31T09:57:08;45.05;;;39.28;;
26690;SDS011;14307;51.718;8.938;2022-10-31T09:59:41;41.78;;;37.03;;
26690;SDS011;14307;51.718;8.938;2022-10-31T10:05:10;41.60;;;37.13;;
26690;SDS011;14307;51.718;8.938;2022-10-31T10:08:00;41.97;;;37.42;;
26690;SDS011;14307;51.718;8.938;2022-10-31T10:10:51;43.08;;;37.95;;
26690;SDS011;14307;51.718;8.938;2022-10-31T10:14:00;41.63;;;35.63;;
26690;SDS011;14307;51.718;8.938;2022-10-31T10:30:22;39.05;;;35.13;;
26690;SDS011;14307;51.718;8.938;2022-10-31T10:32:57;35.72;;;32.17;;
26690;SDS011;14307;51.718;8.938;2022-10-31T10:35:31;36.95;;;33.45;;
26690;SDS011;14307;51.718;8.938;2022-10-31T10:38:09;39.20;;;35.72;;
26690;SDS011;14307;51.718;8.938;2022-10-31T10:40:56;37.55;;;32.55;;
26690;SDS011;14307;51.718;8.938;2022-10-31T10:43:38;37.03;;;33.83;;
26690;SDS011;14307;51.718;8.938;2022-10-31T10:49:03;35.58;;;32.00;;
26690;SDS011;14307;51.718;8.938;2022-10-31T10:59:45;33.88;;;30.98;;
26690;SDS011;14307;51.718;8.938;2022-10-31T11:02:16;33.13;;;29.75;;
26690;SDS011;14307;51.718;8.938;2022-10-31T11:04:52;35.40;;;32.17;;
26690;SDS011;14307;51.718;8.938;2022-10-31T11:07:21;34.28;;;31.15;;
26690;SDS011;14307;51.718;8.938;2022-10-31T11:09:48;32.50;;;29.55;;
26690;SDS011;14307;51.718;8.938;2022-10-31T11:17:22;31.58;;;28.85;;
26690;SDS011;14307;51.718;8.938;2022-10-31T11:20:49;30.15;;;27.55;;
26690;SDS011;14307;51.718;8.938;2022-10-31T11:23:02;30.02;;;27.52;;
26690;SDS011;14307;51.718;8.938;2022-10-31T11:25:50;30.45;;;27.73;;
26690;SDS011;14307;51.718;8.938;2022-10-31T11:28:28;30.30;;;27.83;;
26690;SDS011;14307;51.718;8.938;2022-10-31T11:30:58;30.90;;;28.08;;
26690;SDS011;14307;51.718;8.938;2022-10-31T11:33:37;31.48;;;28.83;;
26690;SDS011;14307;51.718;8.938;2022-10-31T11:36:23;30.55;;;28.13;;
26690;SDS011;14307;51.718;8.938;2022-10-31T11:38:52;32.63;;;29.20;;
26690;SDS011;14307;51.718;8.938;2022-10-31T11:41:23;30.42;;;28.08;;
26690;SDS011;14307;51.718;8.938;2022-10-31T11:44:00;32.42;;;29.48;;
26690;SDS011;14307;51.718;8.938;2022-10-31T11:46:35;33.08;;;30.23;;
26690;SDS011;14307;51.718;8.938;2022-10-31T11:49:40;32.42;;;29.65;;
26690;SDS011;14307;51.718;8.938;2022-10-31T11:54:45;36.33;;;33.05;;
26690;SDS011;14307;51.718;8.938;2022-10-31T11:57:42;35.22;;;32.25;;
26690;SDS011;14307;51.718;8.938;2022-10-31T12:05:53;34.60;;;31.70;;
26690;SDS011;14307;51.718;8.938;2022-10-31T12:08:39;35.40;;;32.28;;
26690;SDS011;14307;51.718;8.938;2022-10-31T12:13:57;36.22;;;33.00;;
26690;SDS011;14307;51.718;8.938;2022-10-31T12:19:00;37.95;;;34.38;;
26690;SDS011;14307;51.718;8.938;2022-10-31T12:27:23;37.70;;;34.22;;
26690;SDS011;14307;51.718;8.938;2022-10-31T12:35:34;38.28;;;34.03;;
26690;SDS011;14307;51.718;8.938;2022-10-31T12:41:45;41.13;;;36.92;;
26690;SDS011;14307;51.718;8.938;2022-10-31T12:45:02;41.42;;;36.97;;
26690;SDS011;14307;51.718;8.938;2022-10-31T12:47:34;41.78;;;37.80;;
26690;SDS011;14307;51.718;8.938;2022-10-31T12:53:18;40.25;;;36.20;;
26690;SDS011;14307;51.718;8.938;2022-10-31T12:56:12;42.50;;;37.08;;
26690;SDS011;14307;51.718;8.938;2022-10-31T13:01:30;39.47;;;35.80;;
26690;SDS011;14307;51.718;8.938;2022-10-31T13:04:22;40.60;;;36.47;;
26690;SDS011;14307;51.718;8.938;2022-10-31T13:06:57;42.75;;;38.63;;
26690;SDS011;14307;51.718;8.938;2022-10-31T13:09:42;43.78;;;39.45;;
26690;SDS011;14307;51.718;8.938;2022-10-31T13:12:16;43.47;;;39.15;;
26690;SDS011;14307;51.718;8.938;2022-10-31T13:14:49;40.00;;;35.95;;
26690;SDS011;14307;51.718;8.938;2022-10-31T13:20:01;41.85;;;37.65;;
26690;SDS011;14307;51.718;8.938;2022-10-31T13:22:44;40.80;;;36.97;;
26690;SDS011;14307;51.718;8.938;2022-10-31T13:25:19;41.58;;;37.55;;
26690;SDS011;14307;51.718;8.938;2022-10-31T13:30:21;42.75;;;38.38;;
26690;SDS011;14307;51.718;8.938;2022-10-31T13:33:08;42.17;;;36.88;;
26690;SDS011;14307;51.718;8.938;2022-10-31T13:41:26;40.83;;;36.63;;
26690;SDS011;14307;51.718;8.938;2022-10-31T13:44:17;40.30;;;36.40;;
26690;SDS011;14307;51.718;8.938;2022-10-31T13:46:52;39.72;;;35.85;;
26690;SDS011;14307;51.718;8.938;2022-10-31T13:49:24;40.83;;;36.67;;
26690;SDS011;14307;51.718;8.938;2022-10-31T13:54:37;39.65;;;35.78;;
26690;SDS011;14307;51.718;8.938;2022-10-31T14:00:42;42.22;;;37.97;;
26690;SDS011;14307;51.718;8.938;2022-10-31T14:02:52;43.58;;;39.08;;
26690;SDS011;14307;51.718;8.938;2022-10-31T14:07:53;43.70;;;39.08;;
26690;SDS011;14307;51.718;8.938;2022-10-31T14:16:17;42.83;;;36.65;;
26690;SDS011;14307;51.718;8.938;2022-10-31T14:21:35;39.42;;;35.40;;
26690;SDS011;14307;51.718;8.938;2022-10-31T14:26:57;44.15;;;35.55;;
26690;SDS011;14307;51.718;8.938;2022-10-31T14:29:29;37.78;;;34.08;;
26690;SDS011;14307;51.718;8.938;2022-10-31T14:40:04;37.78;;;33.78;;
26690;SDS011;14307;51.718;8.938;2022-10-31T14:51:09;33.92;;;30.60;;
26690;SDS011;14307;51.718;8.938;2022-10-31T14:53:48;36.60;;;32.53;;
26690;SDS011;14307;51.718;8.938;2022-10-31T14:56:27;41.53;;;32.53;;
26690;SDS011;14307;51.718;8.938;2022-10-31T14:58:57;35.47;;;31.80;;
26690;SDS011;14307;51.718;8.938;2022-10-31T15:01:32;34.22;;;30.63;;
26690;SDS011;14307;51.718;8.938;2022-10-31T15:06:52;32.97;;;29.52;;
26690;SDS011;14307;51.718;8.938;2022-10-31T15:10:04;38.70;;;32.25;;
26690;SDS011;14307;51.718;8.938;2022-10-31T15:12:33;35.55;;;31.52;;
26690;SDS011;14307;51.718;8.938;2022-10-31T15:15:14;35.60;;;32.20;;
26690;SDS011;14307;51.718;8.938;2022-10-31T15:20:29;36.55;;;32.13;;
26690;SDS011;14307;51.718;8.938;2022-10-31T15:22:59;35.53;;;31.95;;
26690;SDS011;14307;51.718;8.938;2022-10-31T15:25:28;35.67;;;31.98;;
26690;SDS011;14307;51.718;8.938;2022-10-31T15:28:00;36.30;;;32.40;;
26690;SDS011;14307;51.718;8.938;2022-10-31T15:30:28;36.00;;;32.58;;
26690;SDS011;14307;51.718;8.938;2022-10-31T15:32:55;36.92;;;33.17;;
26690;SDS011;14307;51.718;8.938;2022-10-31T15:35:25;36.60;;;32.88;;
26690;SDS011;14307;51.718;8.938;2022-10-31T15:37:57;36.80;;;32.95;;
26690;SDS011;14307;51.718;8.938;2022-10-31T15:40:26;37.05;;;33.22;;
26690;SDS011;14307;51.718;8.938;2022-10-31T15:42:55;36.83;;;32.45;;
26690;SDS011;14307;51.718;8.938;2022-10-31T15:45:27;38.05;;;34.10;;
26690;SDS011;14307;51.718;8.938;2022-10-31T15:48:00;35.72;;;32.03;;
26690;SDS011;14307;51.718;8.938;2022-10-31T15:52:58;39.67;;;32.72;;
26690;SDS011;14307;51.718;8.938;2022-10-31T15:55:27;40.15;;;33.33;;
26690;SDS011;14307;51.718;8.938;2022-10-31T15:57:56;34.80;;;31.30;;
26690;SDS011;14307;51.718;8.938;2022-10-31T16:05:51;36.13;;;32.17;;
26690;SDS011;14307;51.718;8.938;2022-10-31T16:08:25;37.67;;;32.28;;
26690;SDS011;14307;51.718;8.938;2022-10-31T16:10:52;37.67;;;33.63;;
26690;SDS011;14307;51.718;8.938;2022-10-31T16:13:23;44.15;;;35.67;;
26690;SDS011;14307;51.718;8.938;2022-10-31T16:15:57;40.05;;;35.78;;
26690;SDS011;14307;51.718;8.938;2022-10-31T16:18:46;45.40;;;37.72;;
26690;SDS011;14307;51.718;8.938;2022-10-31T16:21:14;43.92;;;34.30;;
26690;SDS011;14307;51.718;8.938;2022-10-31T16:23:45;37.70;;;33.60;;
26690;SDS011;14307;51.718;8.938;2022-10-31T16:26:19;40.47;;;35.60;;
26690;SDS011;14307;51.718;8.938;2022-10-31T16:28:56;61.83;;;47.40;;
26690;SDS011;14307;51.718;8.938;2022-10-31T16:31:36;47.85;;;39.67;;
26690;SDS011;14307;51.718;8.938;2022-10-31T16:34:09;41.13;;;36.67;;
26690;SDS011;14307;51.718;8.938;2022-10-31T16:36:51;40.45;;;33.50;;
26690;SDS011;14307;51.718;8.938;2022-10-31T16:39:18;52.92;;;44.97;;
26690;SDS011;14307;51.718;8.938;2022-10-31T16:41:46;40.90;;;32.70;;
26690;SDS011;14307;51.718;8.938;2022-10-31T16:44:21;36.88;;;31.73;;
26690;SDS011;14307;51.718;8.938;2022-10-31T16:47:08;37.47;;;32.92;;
26690;SDS011;14307;51.718;8.938;2022-10-31T16:49:39;37.85;;;31.75;;
26690;SDS011;14307;51.718;8.938;2022-10-31T16:52:05;38.03;;;32.60;;
26690;SDS011;14307;51.718;8.938;2022-10-31T16:54:32;43.83;;;32.75;;
26690;SDS011;14307;51.718;8.938;2022-10-31T16:56:59;41.80;;;32.28;;
26690;SDS011;14307;51.718;8.938;2022-10-31T16:59:26;34.75;;;30.83;;
26690;SDS011;14307;51.718;8.938;2022-10-31T17:01:53;41.65;;;33.50;;
26690;SDS011;14307;51.718;8.938;2022-10-31T17:04:21;44.40;;;33.75;;
26690;SDS011;14307;51.718;8.938;2022-10-31T17:06:48;39.25;;;32.78;;
26690;SDS011;14307;51.718;8.938;2022-10-31T17:09:14;40.00;;;32.95;;
26690;SDS011;14307;51.718;8.938;2022-10-31T17:11:44;43.28;;;32.50;;
26690;SDS011;14307;51.718;8.938;2022-10-31T17:14:15;38.25;;;33.00;;
26690;SDS011;14307;51.718;8.938;2022-10-31T17:16:42;38.42;;;32.15;;
26690;SDS011;14307;51.718;8.938;2022-10-31T17:19:10;43.95;;;33.35;;
26690;SDS011;14307;51.718;8.938;2022-10-31T17:21:37;40.10;;;32.90;;
26690;SDS011;14307;51.718;8.938;2022-10-31T17:24:04;40.03;;;31.17;;
26690;SDS011;14307;51.718;8.938;2022-10-31T17:26:31;46.25;;;33.05;;
26690;SDS011;14307;51.718;8.938;2022-10-31T17:28:58;40.85;;;31.02;;
26690;SDS011;14307;51.718;8.938;2022-10-31T17:31:27;37.08;;;31.50;;
26690;SDS011;14307;51.718;8.938;2022-10-31T17:33:56;35.35;;;30.40;;
26690;SDS011;14307;51.718;8.938;2022-10-31T17:36:29;39.88;;;30.50;;
26690;SDS011;14307;51.718;8.938;2022-10-31T17:38:56;43.22;;;32.92;;